Time;durP1;ratioP1;P1;durP2;ratioP2;P2;SDS_P1;SDS_P2;PMS_P1;PMS_P2;Temp;Humidity;BMP_temperature;BMP_pressure;BME280_temperature;BME280_humidity;BME280_pressure;Samples;Min_cycle;Max_cycle;Signal;HPM_P1;HPM_P2
2023/01/16 00:00:33;;;;;;;18.20;7.00;;;;;;;-0.24;76.79;99784.98;79705;1292;3011597;-63
2023/01/16 00:03:01;;;;;;;18.30;6.50;;;;;;;0.63;73.16;99782.31;78388;1298;3054369;-61
2023/01/16 00:05:27;;;;;;;16.50;6.40;;;;;;;0.86;72.10;99778.17;79602;1297;3013410;-61
2023/01/16 00:07:54;;;;;;;22.10;8.20;;;;;;;0.77;71.83;99778.48;79611;1297;3011546;-62
2023/01/16 00:10:22;;;;;;;22.50;8.40;;;;;;;0.65;72.49;99777.29;78382;1298;3028972;-62
2023/01/16 00:12:49;;;;;;;22.70;8.30;;;;;;;0.51;72.83;99779.04;79604;1292;3014117;-62
2023/01/16 00:15:16;;;;;;;26.20;9.70;;;;;;;0.43;73.16;99777.62;79582;1293;3012108;-62
2023/01/16 00:17:44;;;;;;;29.50;10.90;;;;;;;0.30;73.40;99776.94;78469;1292;3051470;-61
2023/01/16 00:20:11;;;;;;;24.70;10.30;;;;;;;0.24;73.83;99775.29;79604;1297;3013322;-62
2023/01/16 00:22:37;;;;;;;26.20;10.00;;;;;;;0.13;74.35;99772.84;79568;1297;3011698;-63
2023/01/16 00:25:06;;;;;;;27.00;11.70;;;;;;;0.02;75.07;99770.58;78393;1296;3026438;-61
2023/01/16 00:27:33;;;;;;;22.60;10.50;;;;;;;-0.06;75.48;99764.14;79686;1298;3011463;-62
2023/01/16 00:30:00;;;;;;;25.70;10.30;;;;;;;-0.12;75.89;99757.48;79618;1293;3013748;-63
2023/01/16 00:32:27;;;;;;;32.90;11.00;;;;;;;-0.19;75.77;99760.67;78411;1298;3051354;-62
2023/01/16 00:34:58;;;;;;;28.70;11.20;;;;;;;-0.20;76.24;99757.08;79590;1292;3013067;-61
2023/01/16 00:37:26;;;;;;;35.20;11.30;;;;;;;-0.26;76.54;99757.65;78391;1292;3027275;-62
2023/01/16 00:39:52;;;;;;;28.40;11.00;;;;;;;-0.24;76.55;99754.87;79661;1292;3013218;-62
2023/01/16 00:42:19;;;;;;;28.90;10.90;;;;;;;-0.23;76.71;99753.32;79548;1297;3011579;-61
2023/01/16 00:44:47;;;;;;;31.70;11.60;;;;;;;-0.21;76.73;99751.05;78392;1298;3028360;-60
2023/01/16 00:47:14;;;;;;;32.70;11.90;;;;;;;-0.24;76.82;99750.05;79652;1297;3018614;-61
2023/01/16 00:49:40;;;;;;;32.20;11.10;;;;;;;-0.30;76.95;99748.58;79595;1297;3011850;-62
2023/01/16 00:52:08;;;;;;;27.80;11.20;;;;;;;-0.30;77.25;99747.89;78332;1297;3028333;-62
2023/01/16 00:54:35;;;;;;;36.20;12.30;;;;;;;-0.35;77.53;99750.70;79708;1293;3019241;-61
2023/01/16 00:57:02;;;;;;;33.70;12.40;;;;;;;-0.30;77.46;99748.58;79635;1296;3011809;-62
2023/01/16 00:59:29;;;;;;;34.60;12.10;;;;;;;-0.38;77.53;99748.67;78370;1296;3026102;-62
2023/01/16 01:01:56;;;;;;;39.00;12.70;;;;;;;-0.41;77.58;99745.08;79615;1298;3014075;-61
2023/01/16 01:04:24;;;;;;;29.30;12.40;;;;;;;-0.40;77.82;99746.10;79542;1296;3011724;-61
2023/01/16 01:06:52;;;;;;;32.30;13.30;;;;;;;-0.45;78.10;99743.23;78378;1297;3052422;-63
2023/01/16 01:09:18;;;;;;;33.60;14.00;;;;;;;-0.46;78.42;99740.85;79639;1293;3013225;-62
2023/01/16 01:11:45;;;;;;;43.40;12.10;;;;;;;-0.54;78.66;99739.71;79606;1292;3013048;-61
2023/01/16 01:14:13;;;;;;;29.70;10.40;;;;;;;0.09;77.47;99733.78;78355;1298;3028517;-60
2023/01/16 01:16:40;;;;;;;30.50;9.20;;;;;;;0.90;74.31;99727.39;79592;1297;3013625;-63
2023/01/16 01:19:07;;;;;;;34.50;11.30;;;;;;;1.16;72.60;99732.30;79521;1298;3011637;-61
2023/01/16 01:21:34;;;;;;;31.80;12.10;;;;;;;1.12;72.53;99726.67;78436;1296;3051344;-62
2023/01/16 01:24:01;;;;;;;37.70;13.50;;;;;;;0.86;72.96;99727.48;79540;1292;3013030;-62
2023/01/16 01:26:28;;;;;;;38.80;13.20;;;;;;;0.75;73.62;99723.68;79682;1298;3011713;-61
2023/01/16 01:28:55;;;;;;;36.10;13.70;;;;;;;0.62;74.30;99721.64;78450;1297;3028925;-62
2023/01/16 01:31:22;;;;;;;42.70;13.20;;;;;;;0.48;74.76;99718.40;79613;1297;3020757;-62
2023/01/16 01:33:48;;;;;;;38.40;13.30;;;;;;;0.38;75.39;99715.29;79680;1292;3011635;-62
2023/01/16 01:36:16;;;;;;;44.40;13.00;;;;;;;0.25;75.72;99707.20;78340;1292;3028561;-65
2023/01/16 01:38:44;;;;;;;37.50;11.90;;;;;;;0.22;76.47;99699.33;79610;1293;3013027;-61
2023/01/16 01:41:14;;;;;;;42.50;11.80;;;;;;;0.16;76.49;99693.21;79165;1292;3013426;-60
2023/01/16 01:43:45;;;;;;;35.20;12.20;;;;;;;0.12;76.74;99696.70;79646;1297;3019301;-62
2023/01/16 01:46:22;;;;;;;38.80;11.70;;;;;;;0.08;77.11;99694.20;78414;1298;3052685;-64
2023/01/16 01:48:54;;;;;;;36.60;11.90;;;;;;;0.04;77.24;99693.90;78412;1296;3052114;-62
2023/01/16 01:51:28;;;;;;;32.50;11.40;;;;;;;-0.04;77.42;99689.36;79606;1292;3013292;-61
2023/01/16 01:54:02;;;;;;;33.50;11.40;;;;;;;-0.05;77.61;99688.17;78344;1298;3052020;-60
2023/01/16 01:56:32;;;;;;;31.80;11.70;;;;;;;-0.07;77.70;99690.09;79640;1292;3011899;-61
2023/01/16 01:59:02;;;;;;;31.00;11.30;;;;;;;-0.07;77.96;99693.02;78374;1292;3050391;-62
2023/01/16 02:01:31;;;;;;;36.30;11.90;;;;;;;-0.10;77.57;99689.61;79605;1292;3011749;-61
2023/01/16 02:04:04;;;;;;;28.50;10.70;;;;;;;-0.17;78.16;99685.75;78352;1298;3028694;-60
2023/01/16 02:06:40;;;;;;;;;;;;;;;-0.22;78.22;99686.84;79625;1292;3012030;-61
2023/01/16 02:09:11;;;;;;;27.80;9.60;;;;;;;-0.36;78.60;99688.06;78508;1298;3052676;-62
2023/01/16 02:11:53;;;;;;;30.20;11.50;;;;;;;-0.34;78.96;99690.61;79661;1297;3013461;-61
2023/01/16 02:14:22;;;;;;;35.40;11.10;;;;;;;-0.27;78.95;99689.15;78371;1297;3057249;-61
2023/01/16 02:19:50;;;;;;;25.80;7.90;;;;;;;-0.28;79.23;99693.13;78411;1296;3050198;-64
2023/01/16 02:23:03;;;;;;;27.70;8.90;;;;;;;0.40;77.31;99689.92;78230;1298;3052503;-62
2023/01/16 02:25:52;;;;;;;27.20;8.90;;;;;;;1.15;74.40;99679.19;77886;1304;3053343;-62
2023/01/16 02:28:45;;;;;;;35.20;11.40;;;;;;;1.16;73.49;99684.51;78340;1298;3068744;-61
2023/01/16 02:31:16;;;;;;;30.20;11.40;;;;;;;1.00;73.89;99687.20;78421;1298;3052497;-61
2023/01/16 02:34:24;;;;;;;28.50;10.50;;;;;;;0.81;74.30;99690.31;79582;1292;3012648;-61
2023/01/16 02:37:19;;;;;;;36.40;12.00;;;;;;;0.63;75.21;99692.48;78416;1297;3049596;-62
2023/01/16 02:40:08;;;;;;;29.30;11.00;;;;;;;0.49;75.66;99684.96;78212;1297;3053676;-60
2023/01/16 02:42:43;;;;;;;33.60;11.10;;;;;;;0.33;76.10;99687.27;78392;1298;3050793;-60
2023/01/16 02:45:51;;;;;;;31.60;11.00;;;;;;;0.28;76.47;99686.84;79066;1298;3013221;-61
2023/01/16 02:48:27;;;;;;;31.70;10.90;;;;;;;0.20;76.65;99686.63;78036;1298;3051567;-61
2023/01/16 02:51:10;;;;;;;30.90;11.20;;;;;;;0.11;76.89;99691.22;78410;1298;3053252;-61
2023/01/16 02:53:59;;;;;;;34.80;11.20;;;;;;;0.04;77.34;99687.71;78353;1298;3068909;-60
2023/01/16 02:56:35;;;;;;;34.00;11.60;;;;;;;0.02;78.04;99680.51;78404;1298;3051822;-62
2023/01/16 02:59:03;;;;;;;40.80;12.10;;;;;;;-0.05;77.77;99679.21;78390;1297;3058594;-61
2023/01/16 03:01:34;;;;;;;33.10;12.10;;;;;;;-0.15;78.31;99675.39;79522;1292;3011709;-62
2023/01/16 03:04:04;;;;;;;35.00;11.50;;;;;;;-0.14;78.78;99674.33;78394;1293;3051086;-60
2023/01/16 03:06:34;;;;;;;32.50;11.10;;;;;;;-0.11;78.73;99674.82;79694;1292;3013200;-61
2023/01/16 03:09:10;;;;;;;39.90;12.00;;;;;;;-0.14;78.66;99671.92;78556;1297;3051154;-61
2023/01/16 03:11:57;;;;;;;35.50;11.20;;;;;;;-0.18;79.14;99678.01;78328;1292;3069416;-61
2023/01/16 03:14:28;;;;;;;39.00;12.70;;;;;;;-0.23;79.41;99675.15;78229;1292;3052042;-60
2023/01/16 03:17:28;;;;;;;37.40;13.20;;;;;;;-0.18;79.19;99678.35;79621;1292;3013494;-61
2023/01/16 03:20:13;;;;;;;31.10;8.40;;;;;;;-0.07;78.97;99682.70;78285;1298;3052198;-61
2023/01/16 03:22:46;;;;;;;42.90;10.70;;;;;;;0.65;76.51;99686.41;78352;1292;3053091;-61
2023/01/16 03:25:30;;;;;;;35.20;10.90;;;;;;;1.22;74.25;99683.69;79555;1293;3011654;-62
2023/01/16 03:28:20;;;;;;;42.30;12.40;;;;;;;1.34;73.31;99684.67;78392;1297;3051609;-61
2023/01/16 03:30:53;;;;;;;36.70;10.40;;;;;;;1.28;73.65;99683.92;78366;1292;3053619;-60
2023/01/16 03:33:27;;;;;;;38.00;11.70;;;;;;;1.06;73.69;99686.59;79675;1298;3011650;-62
2023/01/16 03:36:01;;;;;;;37.60;11.80;;;;;;;0.87;74.18;99693.47;78355;1292;3050558;-61
2023/01/16 03:38:28;;;;;;;35.00;11.30;;;;;;;0.77;74.83;99697.45;79605;1298;3012916;-60
2023/01/16 03:40:56;;;;;;;35.10;11.60;;;;;;;0.64;75.31;99696.27;78220;1298;3047686;-61
2023/01/16 03:43:27;;;;;;;42.10;13.20;;;;;;;0.56;75.63;99705.02;79560;1298;3012926;-62
2023/01/16 03:46:00;;;;;;;33.90;12.80;;;;;;;0.46;75.97;99701.38;78298;1297;3052029;-62
2023/01/16 03:48:52;;;;;;;33.70;12.50;;;;;;;0.45;76.50;99698.65;79609;1298;3013756;-61
2023/01/16 03:51:24;;;;;;;41.00;13.20;;;;;;;0.37;76.71;99696.00;78413;1291;3068912;-61
2023/01/16 03:54:04;;;;;;;33.70;12.00;;;;;;;0.21;76.81;99698.48;79683;1297;3012993;-61
2023/01/16 03:56:40;;;;;;;31.00;11.10;;;;;;;0.19;78.09;99699.38;78300;1297;3057224;-61
2023/01/16 03:59:09;;;;;;;40.80;13.80;;;;;;;0.21;78.28;99705.21;78298;1298;3049167;-61
2023/01/16 04:01:45;;;;;;;38.60;13.60;;;;;;;0.12;77.96;99703.44;79603;1298;3019246;-63
2023/01/16 04:04:19;;;;;;;36.50;13.30;;;;;;;0.00;78.63;99703.59;78394;1298;3052767;-62
2023/01/16 04:06:53;;;;;;;39.90;12.90;;;;;;;0.05;79.09;99708.36;79610;1298;3011578;-61
2023/01/16 04:09:24;;;;;;;38.60;12.60;;;;;;;0.05;79.01;99708.87;78357;1292;3069424;-62
2023/01/16 04:11:51;;;;;;;46.50;14.70;;;;;;;0.06;79.38;99712.30;79593;1298;3011566;-62
2023/01/16 04:14:21;;;;;;;35.40;12.60;;;;;;;-0.06;79.22;99708.17;78351;1297;3056086;-61
2023/01/16 04:16:49;;;;;;;34.80;12.80;;;;;;;-0.01;79.52;99708.60;79660;1292;3013146;-61
2023/01/16 04:19:16;;;;;;;20.00;7.20;;;;;;;0.08;79.50;99708.83;79652;1293;3011517;-62
2023/01/16 04:21:47;;;;;;;33.00;9.90;;;;;;;0.60;77.93;99702.36;78381;1298;3052859;-62
2023/01/16 04:24:14;;;;;;;24.90;8.60;;;;;;;1.40;75.44;99699.41;79584;1298;3013438;-62
2023/01/16 04:26:43;;;;;;;32.00;11.80;;;;;;;1.59;73.97;99692.66;78501;1298;3026798;-61
2023/01/16 04:29:10;;;;;;;45.80;12.90;;;;;;;1.52;74.32;99692.95;79620;1293;3012873;-61
2023/01/16 04:31:37;;;;;;;40.80;14.50;;;;;;;1.35;74.41;99692.61;79601;1297;3013413;-62
2023/01/16 04:34:05;;;;;;;39.20;14.30;;;;;;;1.18;75.17;99693.61;78351;1297;3028230;-61
2023/01/16 04:36:33;;;;;;;35.60;13.80;;;;;;;1.01;75.53;99692.36;79694;1297;3013331;-60
2023/01/16 04:38:59;;;;;;;40.70;12.10;;;;;;;0.79;76.06;99690.68;79692;1292;3011825;-60
2023/01/16 04:41:37;;;;;;;44.40;13.40;;;;;;;0.64;76.47;99692.46;78438;1292;3068749;-60
2023/01/16 07:53:12;;;;;;;32.20;9.90;;;;;;;-0.85;89.56;99675.02;80293;1299;3016421;-62
2023/01/16 07:55:38;;;;;;;56.00;16.40;;;;;;;-0.15;87.77;99669.19;78945;1308;3012995;-63
2023/01/16 07:58:05;;;;;;;49.30;17.80;;;;;;;0.79;83.57;99665.48;78923;1304;3011585;-60
2023/01/16 08:00:33;;;;;;;49.30;15.10;;;;;;;1.18;80.64;99658.23;77744;1305;3028890;-62
2023/01/16 08:03:00;;;;;;;48.00;14.30;;;;;;;1.21;79.83;99663.00;79034;1302;3013768;-64
2023/01/16 08:05:27;;;;;;;51.30;14.30;;;;;;;1.10;79.27;99665.45;78258;1302;3011660;-62
2023/01/16 08:07:55;;;;;;;62.60;15.70;;;;;;;0.87;79.24;99669.49;77999;1302;3026190;-63
2023/01/16 08:10:22;;;;;;;51.30;16.90;;;;;;;0.75;79.65;99672.29;79288;1298;3012738;-64
2023/01/16 08:12:49;;;;;;;48.20;17.30;;;;;;;0.76;80.22;99673.30;79144;1302;3011631;-65
2023/01/16 08:15:17;;;;;;;52.30;18.40;;;;;;;0.62;79.88;99670.09;77913;1303;3051316;-62
2023/01/16 08:17:43;;;;;;;54.30;18.90;;;;;;;0.26;81.04;99671.52;79101;1301;3013305;-63
2023/01/16 08:20:10;;;;;;;54.30;16.80;;;;;;;0.21;81.81;99667.80;79290;1299;3013683;-63
2023/01/16 08:22:45;;;;;;;58.50;18.40;;;;;;;0.18;81.66;99666.83;78149;1299;3048376;-63
2023/01/16 08:25:15;;;;;;;41.70;12.80;;;;;;;0.11;81.87;99663.14;78846;1308;3011825;-61
2023/01/16 08:27:42;;;;;;;47.40;13.00;;;;;;;0.85;81.07;99660.55;79324;1305;3011605;-61
2023/01/16 08:30:09;;;;;;;50.30;15.50;;;;;;;1.49;77.76;99653.66;79193;1301;3012007;-62
2023/01/16 08:32:37;;;;;;;52.20;18.10;;;;;;;1.51;76.64;99649.81;78038;1301;3051830;-61
2023/01/16 08:35:04;;;;;;;51.50;18.10;;;;;;;1.56;76.70;99645.06;79271;1302;3019066;-62
2023/01/16 08:37:32;;;;;;;61.40;20.40;;;;;;;1.56;76.69;99642.98;79223;1301;3011661;-64
2023/01/16 08:39:59;;;;;;;61.90;21.10;;;;;;;1.43;76.80;99642.74;78053;1301;3049629;-61
2023/01/16 08:53:33;;;;;;;57.10;20.80;;;;;;;0.96;78.36;99623.29;78028;1311;3051026;-63
2023/01/16 08:55:59;;;;;;;61.30;20.20;;;;;;;0.94;78.63;99621.77;79201;1301;3013172;-62
2023/01/16 08:58:26;;;;;;;63.60;23.70;;;;;;;0.90;78.79;99616.15;79243;1301;3013652;-62
2023/01/16 09:00:53;;;;;;;61.20;22.30;;;;;;;0.92;78.68;99613.89;77921;1301;3028556;-65
2023/01/16 09:03:20;;;;;;;63.70;21.60;;;;;;;0.94;78.41;99610.55;79183;1301;3013350;-62
2023/01/16 09:05:47;;;;;;;69.40;23.80;;;;;;;0.86;79.01;99613.65;79221;1301;3011613;-63
2023/01/16 09:08:15;;;;;;;65.20;19.70;;;;;;;0.82;79.03;99613.89;77964;1301;3050868;-63
2023/01/16 09:13:48;;;;;;;49.70;15.40;;;;;;;1.34;78.37;99615.30;79223;1301;3013769;-63
2023/01/16 09:13:50;;;;;;;41.30;14.20;;;;;;;2.13;75.25;99603.71;78060;1301;3050344;-63
2023/01/16 09:16:22;;;;;;;54.10;19.40;;;;;;;2.29;73.74;99607.67;78114;1299;3053115;-63
2023/01/16 09:18:49;;;;;;;57.60;21.00;;;;;;;2.11;73.92;99601.17;79072;1301;3013320;-64
2023/01/16 09:21:22;;;;;;;52.40;20.70;;;;;;;1.99;74.07;99597.48;77966;1301;3028996;-63
2023/01/16 09:23:49;;;;;;;;;;;;;;;1.90;74.50;99587.14;79180;1301;3012096;-67
2023/01/16 09:26:17;;;;;;;57.40;18.40;;;;;;;1.70;75.08;99586.56;77904;1301;3068979;-62
2023/01/16 09:28:43;;;;;;;59.30;22.00;;;;;;;1.68;75.26;99590.41;79317;1301;3011532;-61
2023/01/16 09:31:10;;;;;;;59.40;21.90;;;;;;;1.56;75.38;99589.30;79153;1301;3013630;-63
2023/01/16 09:33:38;;;;;;;58.30;23.20;;;;;;;1.50;76.04;99591.31;77942;1301;3028819;-64
2023/01/16 09:36:06;;;;;;;69.70;24.00;;;;;;;1.50;76.11;99585.28;79292;1311;3021542;-61
2023/01/16 09:38:33;;;;;;;55.00;22.70;;;;;;;1.36;76.36;99586.09;79267;1301;3011581;-65
2023/01/16 09:41:02;;;;;;;58.30;22.80;;;;;;;1.30;76.77;99587.42;77961;1302;3068922;-63
2023/01/16 09:43:41;;;;;;;60.10;21.30;;;;;;;1.20;77.30;99589.86;79350;1301;3013166;-62
2023/01/16 09:46:17;;;;;;;65.70;23.30;;;;;;;1.12;77.25;99586.06;77996;1301;3057238;-61
2023/01/16 09:48:45;;;;;;;52.60;20.40;;;;;;;1.14;78.01;99588.26;78013;1301;3049606;-70
2023/01/16 09:51:23;;;;;;;53.30;20.30;;;;;;;1.18;77.67;99588.36;79437;1301;3013289;-64
2023/01/16 09:59:38;;;;;;;51.50;19.40;;;;;;;1.21;77.61;99589.69;78117;1301;3069359;-68
2023/01/16 10:02:23;;;;;;;53.70;21.00;;;;;;;0.93;77.82;99588.84;79271;1301;3013402;-62
2023/01/16 10:04:52;;;;;;;54.00;21.30;;;;;;;1.04;77.70;99589.84;78166;1301;3056834;-63
2023/01/16 10:07:37;;;;;;;53.80;21.40;;;;;;;0.92;78.04;99586.95;79318;1301;3011973;-63
2023/01/16 10:10:38;;;;;;;66.20;22.80;;;;;;;0.83;78.65;99584.39;77937;1301;3054082;-62
2023/01/16 10:13:21;;;;;;;43.70;14.70;;;;;;;0.70;78.82;99585.31;78417;1311;3049437;-63
2023/01/16 10:16:15;;;;;;;33.30;12.10;;;;;;;1.56;77.21;99577.88;78088;1301;3052387;-62
2023/01/16 10:18:56;;;;;;;43.70;15.80;;;;;;;2.21;74.69;99578.14;78171;1301;3054009;-61
2023/01/16 10:21:41;;;;;;;42.30;16.60;;;;;;;2.27;73.63;99573.13;78125;1301;3068570;-63
2023/01/16 10:24:42;;;;;;;42.90;17.30;;;;;;;2.19;73.82;99573.67;77899;1301;3051073;-63
2023/01/16 10:27:28;;;;;;;52.20;17.90;;;;;;;1.91;74.40;99568.64;77660;1308;3056672;-63
2023/01/16 10:30:02;;;;;;;55.20;17.20;;;;;;;1.82;74.31;99567.48;78010;1302;3049860;-62
2023/01/16 10:32:57;;;;;;;48.40;18.50;;;;;;;1.55;75.37;99567.73;79247;1301;3011740;-64
2023/01/16 10:35:28;;;;;;;50.40;17.70;;;;;;;1.36;76.10;99569.35;78046;1301;3050667;-63
2023/01/16 10:37:54;;;;;;;61.50;18.90;;;;;;;1.23;76.59;99570.48;79268;1301;3013913;-62
2023/01/16 10:40:25;;;;;;;52.00;19.30;;;;;;;0.99;77.32;99569.41;78788;1298;3012849;-62
2023/01/16 10:51:18;;;;;;;65.20;20.70;;;;;;;1.22;77.28;99565.84;78846;1298;3049660;-61
2023/01/16 10:53:44;;;;;;;59.50;19.60;;;;;;;1.06;77.54;99567.73;79345;1301;3013480;-62
2023/01/16 10:56:11;;;;;;;57.10;21.50;;;;;;;1.02;77.76;99561.61;79322;1301;3012941;-62
2023/01/16 10:58:41;;;;;;;64.50;20.60;;;;;;;0.91;78.18;99559.73;78140;1298;3027489;-61
2023/01/16 11:01:14;;;;;;;53.70;19.30;;;;;;;1.01;77.84;99559.54;79265;1309;3012991;-61
2023/01/16 11:03:43;;;;;;;62.20;20.20;;;;;;;0.80;78.47;99563.57;78060;1295;3050575;-62
2023/01/16 11:06:13;;;;;;;55.40;20.90;;;;;;;0.77;78.85;99561.05;79271;1299;3011974;-63
2023/01/16 11:08:42;;;;;;;57.70;20.80;;;;;;;0.84;79.16;99559.52;78030;1301;3026570;-61
2023/01/16 11:18:27;;;;;;;58.90;19.40;;;;;;;0.96;78.35;99559.62;79249;1299;3012932;-63
2023/01/16 11:19:41;;;;;;;47.30;16.10;;;;;;;2.51;72.65;99554.71;78112;1302;3052616;-63
2023/01/16 11:22:25;;;;;;;49.00;16.50;;;;;;;2.57;72.18;99549.38;78062;1300;3067983;-64
2023/01/16 11:24:58;;;;;;;47.60;18.30;;;;;;;2.56;72.18;99553.73;78281;1302;3051442;-62
2023/01/16 11:27:27;;;;;;;46.90;18.40;;;;;;;2.46;72.27;99555.18;79249;1299;3013132;-62
2023/01/16 11:29:57;;;;;;;45.20;18.20;;;;;;;2.24;72.49;99553.68;77969;1301;3048442;-65
2023/01/16 11:32:24;;;;;;;47.00;18.20;;;;;;;1.96;73.19;99555.39;79142;1305;3013051;-63
2023/01/16 11:34:55;;;;;;;44.70;17.30;;;;;;;1.60;74.18;99559.84;79073;1299;3012195;-64
2023/01/16 11:37:23;;;;;;;46.40;18.20;;;;;;;1.48;75.03;99557.35;77931;1311;3052357;-62
2023/01/16 11:39:51;;;;;;;43.50;17.60;;;;;;;1.39;75.42;99554.27;79223;1301;3012927;-62
2023/01/16 11:48:22;;;;;;;40.20;16.60;;;;;;;1.28;76.38;99550.88;77846;1303;3052804;-61
2023/01/16 11:50:55;;;;;;;46.60;15.30;;;;;;;0.97;76.45;99549.63;78014;1301;3050824;-62
2023/01/16 11:53:22;;;;;;;41.90;17.40;;;;;;;1.00;77.30;99546.26;79338;1295;3012775;-62
2023/01/16 11:56:16;;;;;;;43.00;17.90;;;;;;;1.03;77.49;99542.25;78213;1298;3025433;-64
2023/01/16 11:58:53;;;;;;;36.60;16.80;;;;;;;1.03;77.38;99547.23;78080;1301;3068800;-63
2023/01/16 12:01:29;;;;;;;41.80;17.30;;;;;;;1.04;77.58;99555.52;78179;1298;3051571;-62
2023/01/16 12:04:17;;;;;;;32.10;15.70;;;;;;;1.10;77.32;99555.39;78045;1298;3056016;-62
2023/01/16 12:07:24;;;;;;;37.80;16.50;;;;;;;1.13;77.10;99553.27;78150;1298;3051045;-63
2023/01/16 12:10:16;;;;;;;36.00;14.00;;;;;;;1.08;77.17;99554.58;77553;1310;3053209;-62
2023/01/16 12:15:51;;;;;;;39.70;16.90;;;;;;;1.03;77.47;99556.05;77953;1300;3053405;-60
2023/01/16 12:18:41;;;;;;;36.20;16.00;;;;;;;0.87;78.21;99556.38;78080;1298;3053513;-64
2023/01/16 12:21:46;;;;;;;39.80;16.80;;;;;;;0.81;78.98;99561.99;78262;1296;3069197;-62
2023/01/16 12:24:20;;;;;;;28.50;11.10;;;;;;;1.00;79.01;99559.22;78082;1301;3052150;-65
2023/01/16 12:27:11;;;;;;;30.40;11.70;;;;;;;1.75;77.11;99561.04;79259;1295;3012658;-64
2023/01/16 12:29:47;;;;;;;35.80;13.60;;;;;;;2.44;74.42;99560.44;78107;1296;3048477;-61
2023/01/16 12:32:44;;;;;;;35.60;15.20;;;;;;;2.24;74.11;99567.50;77988;1300;3052524;-61
2023/01/16 12:35:23;;;;;;;36.70;15.00;;;;;;;2.14;74.20;99563.25;78079;1298;3051222;-62
2023/01/16 12:37:54;;;;;;;42.10;16.20;;;;;;;1.99;75.01;99565.17;78074;1298;3052919;-62
2023/01/16 12:40:46;;;;;;;41.10;16.50;;;;;;;1.74;76.35;99566.78;79255;1298;3013209;-65
2023/01/16 12:43:30;;;;;;;35.20;15.80;;;;;;;1.69;76.47;99570.71;78004;1296;3069203;-65
2023/01/16 12:46:02;;;;;;;37.00;14.70;;;;;;;1.46;77.18;99573.44;78131;1298;3052007;-61
2023/01/16 12:48:48;;;;;;;38.60;16.30;;;;;;;1.40;77.47;99568.04;79264;1295;3011622;-62
2023/01/16 12:51:22;;;;;;;30.70;13.70;;;;;;;1.37;77.72;99564.83;78087;1298;3049486;-62
2023/01/16 12:54:22;;;;;;;33.00;14.40;;;;;;;1.32;77.69;99563.55;78841;1298;3011662;-61
2023/01/16 12:57:15;;;;;;;29.90;13.80;;;;;;;1.14;78.55;99563.76;78140;1296;3054071;-64
2023/01/16 12:59:51;;;;;;;33.50;14.10;;;;;;;1.06;79.36;99563.59;78124;1298;3050765;-61
2023/01/16 13:02:45;;;;;;;32.10;12.60;;;;;;;1.04;79.43;99561.04;78171;1298;3051954;-63
2023/01/16 13:05:21;;;;;;;29.30;12.50;;;;;;;1.06;79.17;99561.52;78137;1298;3052372;-62
2023/01/16 17:21:28;;;;;;;12.60;4.80;;;;;;;0.40;84.46;99517.76;79930;1305;3011776;-63
2023/01/16 17:23:58;;;;;;;16.00;7.80;;;;;;;1.22;82.95;99509.39;78847;1308;3011671;-65
2023/01/16 17:26:26;;;;;;;15.90;7.60;;;;;;;2.02;79.47;99501.88;77578;1305;3024953;-62
2023/01/16 17:28:54;;;;;;;13.90;6.50;;;;;;;2.43;77.30;99504.25;78915;1308;3012679;-62
2023/01/16 17:31:25;;;;;;;20.90;8.40;;;;;;;2.53;77.02;99499.69;78327;1304;3013233;-63
2023/01/16 17:33:54;;;;;;;17.20;7.50;;;;;;;2.22;76.75;99498.08;77852;1306;3013230;-64
2023/01/16 17:36:24;;;;;;;21.30;8.20;;;;;;;2.19;77.08;99499.03;78643;1303;3011754;-62
2023/01/16 17:38:51;;;;;;;18.80;7.40;;;;;;;1.82;77.43;99499.92;79200;1305;3013414;-64
2023/01/16 17:41:23;;;;;;;18.70;9.10;;;;;;;1.77;77.75;99492.80;79017;1299;3011683;-62
2023/01/16 17:46:38;;;;;;;20.10;8.00;;;;;;;1.67;78.36;99483.90;78027;1298;3053606;-64
2023/01/16 17:49:04;;;;;;;17.60;7.90;;;;;;;1.60;78.73;99483.18;79104;1302;3012830;-64
2023/01/16 17:51:31;;;;;;;17.10;7.40;;;;;;;1.53;78.89;99495.60;79236;1303;3012184;-65
2023/01/16 17:53:59;;;;;;;20.30;6.40;;;;;;;1.42;79.11;99493.45;77990;1304;3029062;-64
2023/01/16 17:56:26;;;;;;;10.30;4.80;;;;;;;1.76;78.51;99495.42;79256;1299;3013055;-64
2023/01/16 17:58:53;;;;;;;12.80;6.50;;;;;;;2.47;76.42;99489.27;79380;1301;3011616;-64
2023/01/16 18:01:26;;;;;;;15.10;7.10;;;;;;;2.72;75.24;99487.73;78018;1301;3052595;-65
2023/01/16 18:06:36;;;;;;;14.00;7.20;;;;;;;2.46;75.24;99490.55;78012;1300;3069700;-63
2023/01/16 18:09:06;;;;;;;14.40;7.30;;;;;;;2.25;75.41;99496.96;79199;1304;3011661;-63
2023/01/16 18:17:23;;;;;;;16.70;7.90;;;;;;;1.76;77.48;99490.74;78032;1301;3053053;-62
2023/01/16 18:19:57;;;;;;;14.40;7.10;;;;;;;1.69;78.11;99491.95;78157;1301;3049989;-63
2023/01/16 18:22:25;;;;;;;17.80;7.20;;;;;;;1.51;78.40;99489.42;79340;1300;3013155;-63
2023/01/16 18:24:53;;;;;;;17.90;7.20;;;;;;;1.36;79.24;99487.88;78113;1302;3052457;-63
2023/01/16 18:27:20;;;;;;;18.60;7.80;;;;;;;1.41;78.97;99486.23;79252;1299;3013365;-64
2023/01/16 18:29:47;;;;;;;16.70;7.30;;;;;;;1.26;79.63;99482.08;79339;1301;3012999;-63
2023/01/16 18:32:25;;;;;;;14.40;5.40;;;;;;;1.42;79.80;99481.38;78209;1301;3028154;-64
2023/01/16 18:34:55;;;;;;;8.10;4.30;;;;;;;2.14;77.98;99475.48;78069;1301;3053905;-63
2023/01/16 18:37:28;;;;;;;11.70;5.30;;;;;;;2.44;75.85;99481.61;79352;1299;3011474;-61
2023/01/16 19:02:20;;;;;;;22.50;7.90;;;;;;;1.61;78.28;99455.88;78069;1301;3052753;-62
2023/01/16 19:04:47;;;;;;;16.80;8.00;;;;;;;1.57;78.65;99460.65;79311;1301;3011933;-63
2023/01/16 19:07:20;;;;;;;16.90;7.50;;;;;;;1.57;78.50;99460.83;78052;1298;3068469;-62
2023/01/16 19:09:47;;;;;;;;;;;;;;;1.58;79.01;99460.81;79380;1301;3013471;-62
2023/01/16 19:12:15;;;;;;;13.50;5.90;;;;;;;1.52;79.38;99461.11;78035;1301;3057395;-63
2023/01/16 19:14:42;;;;;;;12.40;5.10;;;;;;;1.56;79.31;99457.72;79413;1298;3013077;-63
2023/01/16 19:17:08;;;;;;;11.00;4.40;;;;;;;2.17;77.94;99448.05;79234;1299;3012082;-64
2023/01/16 19:19:36;;;;;;;10.90;5.50;;;;;;;2.84;75.36;99453.48;78135;1301;3026408;-63
2023/01/16 19:22:03;;;;;;;13.80;7.00;;;;;;;2.83;74.43;99446.43;79299;1301;3013331;-63
2023/01/16 19:24:31;;;;;;;16.80;6.40;;;;;;;2.80;74.65;99446.18;79247;1301;3011634;-64
2023/01/16 19:26:59;;;;;;;14.90;6.50;;;;;;;2.68;74.34;99445.48;78052;1300;3056109;-63
2023/01/16 19:29:25;;;;;;;11.80;6.40;;;;;;;2.48;74.78;99440.34;79425;1300;3013861;-63
2023/01/16 19:31:54;;;;;;;11.50;5.90;;;;;;;2.21;75.71;99441.23;79519;1295;3013197;-64
2023/01/16 19:34:25;;;;;;;11.20;5.30;;;;;;;2.21;75.50;99444.17;78186;1298;3051885;-64
2023/01/16 19:36:52;;;;;;;13.00;6.00;;;;;;;2.08;76.04;99446.94;79317;1299;3013105;-63
2023/01/16 19:39:20;;;;;;;11.60;5.60;;;;;;;2.00;76.12;99444.55;78169;1301;3026579;-63
2023/01/16 19:47:21;;;;;;;10.70;4.90;;;;;;;1.77;76.94;99431.83;78031;1301;3053692;-63
2023/01/16 19:49:48;;;;;;;12.10;5.80;;;;;;;1.79;76.66;99432.12;79431;1295;3012935;-63
2023/01/16 19:52:15;;;;;;;12.00;5.30;;;;;;;1.76;76.83;99425.82;79350;1301;3013604;-63
2023/01/16 19:54:43;;;;;;;16.00;6.00;;;;;;;1.66;77.13;99421.05;78185;1300;3026691;-63
2023/01/16 19:57:10;;;;;;;11.10;5.30;;;;;;;1.63;77.44;99412.67;79338;1295;3013852;-62
2023/01/16 19:59:36;;;;;;;9.00;4.60;;;;;;;1.62;77.60;99411.14;79417;1298;3011570;-62
2023/01/16 20:02:07;;;;;;;9.20;4.20;;;;;;;2.07;76.57;99416.02;78480;1296;3052744;-63
2023/01/16 20:04:36;;;;;;;10.50;4.70;;;;;;;2.74;74.02;99415.20;79393;1300;3011646;-63
2023/01/16 20:07:07;;;;;;;10.50;4.80;;;;;;;2.92;72.74;99418.81;78328;1300;3052184;-63
2023/01/16 20:09:36;;;;;;;13.80;6.50;;;;;;;2.83;72.56;99412.35;79548;1301;3011600;-62
2023/01/16 20:14:51;;;;;;;12.40;6.10;;;;;;;2.43;73.71;99415.41;78240;1308;3051416;-61
2023/01/16 20:17:18;;;;;;;10.60;5.60;;;;;;;2.27;74.08;99412.56;79623;1299;3013080;-63
2023/01/16 20:19:45;;;;;;;13.60;5.20;;;;;;;2.26;74.31;99406.19;79356;1300;3012920;-62
2023/01/16 20:22:13;;;;;;;11.80;5.80;;;;;;;2.11;74.63;99396.91;78299;1300;3027069;-62
2023/01/16 20:24:40;;;;;;;10.20;5.30;;;;;;;2.10;74.92;99402.30;79504;1301;3014700;-62